sensor_id;sensor_type;location;lat;lon;timestamp;temperature;humidity
36450;DHT22;22475;51.390;7.180;2023-05-16T00:00:43;17.00;91.50
36450;DHT22;22475;51.390;7.180;2023-05-16T00:03:12;17.00;91.50
36450;DHT22;22475;51.390;7.180;2023-05-16T00:05:39;17.10;91.60
36450;DHT22;22475;51.390;7.180;2023-05-16T00:08:05;17.00;91.50
36450;DHT22;22475;51.390;7.180;2023-05-16T00:10:32;17.00;91.50
36450;DHT22;22475;51.390;7.180;2023-05-16T00:12:59;17.00;91.50
36450;DHT22;22475;51.390;7.180;2023-05-16T00:15:26;17.00;91.50
36450;DHT22;22475;51.390;7.180;2023-05-16T00:17:54;17.00;91.50
36450;DHT22;22475;51.390;7.180;2023-05-16T00:20:24;16.90;91.50
36450;DHT22;22475;51.390;7.180;2023-05-16T00:22:52;16.90;91.40
36450;DHT22;22475;51.390;7.180;2023-05-16T00:25:19;17.00;91.40
36450;DHT22;22475;51.390;7.180;2023-05-16T00:27:46;17.00;91.40
36450;DHT22;22475;51.390;7.180;2023-05-16T00:30:13;16.90;91.40
36450;DHT22;22475;51.390;7.180;2023-05-16T00:32:40;16.90;91.40
36450;DHT22;22475;51.390;7.180;2023-05-16T00:35:07;16.90;91.40
36450;DHT22;22475;51.390;7.180;2023-05-16T00:37:37;16.90;91.40
36450;DHT22;22475;51.390;7.180;2023-05-16T00:40:05;16.90;91.40
36450;DHT22;22475;51.390;7.180;2023-05-16T00:42:32;16.90;91.40
36450;DHT22;22475;51.390;7.180;2023-05-16T00:44:59;16.90;91.50
36450;DHT22;22475;51.390;7.180;2023-05-16T00:47:26;16.90;91.50
36450;DHT22;22475;51.390;7.180;2023-05-16T00:49:52;16.90;91.60
36450;DHT22;22475;51.390;7.180;2023-05-16T00:52:19;16.90;91.60
36450;DHT22;22475;51.390;7.180;2023-05-16T00:54:47;16.90;91.60
36450;DHT22;22475;51.390;7.180;2023-05-16T00:57:15;16.90;91.60
36450;DHT22;22475;51.390;7.180;2023-05-16T00:59:43;16.90;91.50
36450;DHT22;22475;51.390;7.180;2023-05-16T01:02:10;16.80;91.80
36450;DHT22;22475;51.390;7.180;2023-05-16T01:04:38;16.80;91.50
36450;DHT22;22475;51.390;7.180;2023-05-16T01:07:05;16.80;91.50
36450;DHT22;22475;51.390;7.180;2023-05-16T01:09:32;16.80;91.50
36450;DHT22;22475;51.390;7.180;2023-05-16T01:12:10;16.80;91.50
36450;DHT22;22475;51.390;7.180;2023-05-16T01:14:45;16.80;91.50
36450;DHT22;22475;51.390;7.180;2023-05-16T01:17:20;16.80;91.50
36450;DHT22;22475;51.390;7.180;2023-05-16T01:19:59;16.80;91.50
36450;DHT22;22475;51.390;7.180;2023-05-16T01:22:37;16.80;91.40
36450;DHT22;22475;51.390;7.180;2023-05-16T01:25:20;16.80;91.40
36450;DHT22;22475;51.390;7.180;2023-05-16T01:27:49;16.80;91.50
36450;DHT22;22475;51.390;7.180;2023-05-16T01:30:18;16.80;91.40
36450;DHT22;22475;51.390;7.180;2023-05-16T01:32:45;16.80;91.40
36450;DHT22;22475;51.390;7.180;2023-05-16T01:35:13;16.80;91.40
36450;DHT22;22475;51.390;7.180;2023-05-16T01:37:47;16.70;91.40
36450;DHT22;22475;51.390;7.180;2023-05-16T01:40:18;16.80;91.40
36450;DHT22;22475;51.390;7.180;2023-05-16T01:42:51;16.80;91.40
36450;DHT22;22475;51.390;7.180;2023-05-16T01:45:22;16.70;91.30
36450;DHT22;22475;51.390;7.180;2023-05-16T01:47:56;16.70;91.40
36450;DHT22;22475;51.390;7.180;2023-05-16T01:50:25;16.80;91.40
36450;DHT22;22475;51.390;7.180;2023-05-16T01:52:58;16.70;91.30
36450;DHT22;22475;51.390;7.180;2023-05-16T01:55:31;16.70;91.20
36450;DHT22;22475;51.390;7.180;2023-05-16T01:58:03;16.70;91.20
36450;DHT22;22475;51.390;7.180;2023-05-16T02:00:30;16.70;91.20
36450;DHT22;22475;51.390;7.180;2023-05-16T02:02:57;16.70;91.20
36450;DHT22;22475;51.390;7.180;2023-05-16T02:05:24;16.70;91.20
36450;DHT22;22475;51.390;7.180;2023-05-16T02:07:51;16.70;91.20
36450;DHT22;22475;51.390;7.180;2023-05-16T02:10:18;16.70;91.20
36450;DHT22;22475;51.390;7.180;2023-05-16T02:12:45;16.70;91.20
36450;DHT22;22475;51.390;7.180;2023-05-16T02:15:13;16.70;91.10
36450;DHT22;22475;51.390;7.180;2023-05-16T02:17:40;16.70;91.00
36450;DHT22;22475;51.390;7.180;2023-05-16T02:20:08;16.70;90.90
36450;DHT22;22475;51.390;7.180;2023-05-16T02:22:35;16.60;90.80
36450;DHT22;22475;51.390;7.180;2023-05-16T02:25:04;16.60;90.80
36450;DHT22;22475;51.390;7.180;2023-05-16T02:27:31;16.60;90.90
36450;DHT22;22475;51.390;7.180;2023-05-16T02:29:58;16.60;91.00
36450;DHT22;22475;51.390;7.180;2023-05-16T02:32:26;16.60;91.00
36450;DHT22;22475;51.390;7.180;2023-05-16T02:34:53;16.60;91.00
36450;DHT22;22475;51.390;7.180;2023-05-16T02:37:20;16.60;91.10
36450;DHT22;22475;51.390;7.180;2023-05-16T02:39:46;16.60;91.00
36450;DHT22;22475;51.390;7.180;2023-05-16T02:42:13;16.60;90.80
36450;DHT22;22475;51.390;7.180;2023-05-16T02:44:40;16.60;90.80
36450;DHT22;22475;51.390;7.180;2023-05-16T02:47:07;16.50;90.70
36450;DHT22;22475;51.390;7.180;2023-05-16T02:49:35;16.50;90.70
36450;DHT22;22475;51.390;7.180;2023-05-16T02:52:02;16.50;90.70
36450;DHT22;22475;51.390;7.180;2023-05-16T02:54:29;16.50;90.60
36450;DHT22;22475;51.390;7.180;2023-05-16T02:56:56;16.50;90.60
36450;DHT22;22475;51.390;7.180;2023-05-16T02:59:23;16.50;90.60
36450;DHT22;22475;51.390;7.180;2023-05-16T03:01:49;16.50;90.60
36450;DHT22;22475;51.390;7.180;2023-05-16T03:04:16;16.50;90.60
36450;DHT22;22475;51.390;7.180;2023-05-16T03:06:44;16.50;90.60
36450;DHT22;22475;51.390;7.180;2023-05-16T03:09:11;16.50;90.60
36450;DHT22;22475;51.390;7.180;2023-05-16T03:11:38;16.50;90.60
36450;DHT22;22475;51.390;7.180;2023-05-16T03:14:06;16.50;90.60
36450;DHT22;22475;51.390;7.180;2023-05-16T03:16:33;16.50;90.60
36450;DHT22;22475;51.390;7.180;2023-05-16T03:19:01;16.50;90.70
36450;DHT22;22475;51.390;7.180;2023-05-16T03:21:27;16.50;90.70
36450;DHT22;22475;51.390;7.180;2023-05-16T03:23:56;16.50;90.80
36450;DHT22;22475;51.390;7.180;2023-05-16T03:26:22;16.50;90.70
36450;DHT22;22475;51.390;7.180;2023-05-16T03:28:50;16.50;90.70
36450;DHT22;22475;51.390;7.180;2023-05-16T03:31:17;16.50;90.70
36450;DHT22;22475;51.390;7.180;2023-05-16T03:33:44;16.50;90.70
36450;DHT22;22475;51.390;7.180;2023-05-16T03:36:10;16.50;90.70
36450;DHT22;22475;51.390;7.180;2023-05-16T03:38:37;16.50;90.70
36450;DHT22;22475;51.390;7.180;2023-05-16T03:41:05;16.50;90.70
36450;DHT22;22475;51.390;7.180;2023-05-16T03:43:32;16.50;90.60
36450;DHT22;22475;51.390;7.180;2023-05-16T03:46:00;16.50;90.50
36450;DHT22;22475;51.390;7.180;2023-05-16T03:48:27;16.50;90.50
36450;DHT22;22475;51.390;7.180;2023-05-16T03:50:54;16.50;90.50
36450;DHT22;22475;51.390;7.180;2023-05-16T03:53:20;16.50;90.50
36450;DHT22;22475;51.390;7.180;2023-05-16T03:55:47;16.40;90.40
36450;DHT22;22475;51.390;7.180;2023-05-16T03:58:15;16.50;90.40
36450;DHT22;22475;51.390;7.180;2023-05-16T04:00:42;16.40;90.30
36450;DHT22;22475;51.390;7.180;2023-05-16T04:03:10;16.40;90.30
36450;DHT22;22475;51.390;7.180;2023-05-16T04:05:37;16.40;90.20
36450;DHT22;22475;51.390;7.180;2023-05-16T04:08:04;16.50;90.30
36450;DHT22;22475;51.390;7.180;2023-05-16T04:10:31;16.40;90.20
36450;DHT22;22475;51.390;7.180;2023-05-16T04:12:57;16.40;90.20
36450;DHT22;22475;51.390;7.180;2023-05-16T04:15:25;16.40;90.20
36450;DHT22;22475;51.390;7.180;2023-05-16T04:17:52;16.40;90.20
36450;DHT22;22475;51.390;7.180;2023-05-16T04:20:19;16.40;90.10
36450;DHT22;22475;51.390;7.180;2023-05-16T04:22:46;16.40;90.20
36450;DHT22;22475;51.390;7.180;2023-05-16T04:25:13;16.40;90.20
36450;DHT22;22475;51.390;7.180;2023-05-16T04:27:39;16.40;90.60
36450;DHT22;22475;51.390;7.180;2023-05-16T04:30:07;16.40;90.20
36450;DHT22;22475;51.390;7.180;2023-05-16T04:32:37;16.40;90.20
36450;DHT22;22475;51.390;7.180;2023-05-16T04:35:04;16.40;90.20
36450;DHT22;22475;51.390;7.180;2023-05-16T04:37:31;16.40;90.10
36450;DHT22;22475;51.390;7.180;2023-05-16T04:39:58;16.40;89.90
36450;DHT22;22475;51.390;7.180;2023-05-16T04:42:25;16.40;90.00
36450;DHT22;22475;51.390;7.180;2023-05-16T04:44:52;16.40;90.20
36450;DHT22;22475;51.390;7.180;2023-05-16T04:47:18;16.40;90.30
36450;DHT22;22475;51.390;7.180;2023-05-16T04:49:46;16.40;90.30
36450;DHT22;22475;51.390;7.180;2023-05-16T04:52:13;16.40;90.20
36450;DHT22;22475;51.390;7.180;2023-05-16T04:54:40;16.40;90.10
36450;DHT22;22475;51.390;7.180;2023-05-16T04:57:07;16.40;90.00
36450;DHT22;22475;51.390;7.180;2023-05-16T04:59:33;16.30;89.50
36450;DHT22;22475;51.390;7.180;2023-05-16T05:02:00;16.30;89.40
36450;DHT22;22475;51.390;7.180;2023-05-16T05:04:28;16.30;89.10
36450;DHT22;22475;51.390;7.180;2023-05-16T05:06:56;16.30;89.40
36450;DHT22;22475;51.390;7.180;2023-05-16T05:09:23;16.30;89.30
36450;DHT22;22475;51.390;7.180;2023-05-16T05:11:50;16.30;89.20
36450;DHT22;22475;51.390;7.180;2023-05-16T05:14:17;16.30;89.20
36450;DHT22;22475;51.390;7.180;2023-05-16T05:16:43;16.20;88.90
36450;DHT22;22475;51.390;7.180;2023-05-16T05:19:10;16.20;88.90
36450;DHT22;22475;51.390;7.180;2023-05-16T05:21:37;16.20;89.00
36450;DHT22;22475;51.390;7.180;2023-05-16T05:24:05;16.30;89.50
36450;DHT22;22475;51.390;7.180;2023-05-16T05:26:32;16.30;89.80
36450;DHT22;22475;51.390;7.180;2023-05-16T05:28:59;16.30;89.70
36450;DHT22;22475;51.390;7.180;2023-05-16T05:31:25;16.20;89.70
36450;DHT22;22475;51.390;7.180;2023-05-16T05:33:52;16.20;89.60
36450;DHT22;22475;51.390;7.180;2023-05-16T05:36:19;16.30;89.50
36450;DHT22;22475;51.390;7.180;2023-05-16T05:38:46;16.30;89.40
36450;DHT22;22475;51.390;7.180;2023-05-16T05:41:14;16.30;89.20
36450;DHT22;22475;51.390;7.180;2023-05-16T05:43:40;16.20;88.90
36450;DHT22;22475;51.390;7.180;2023-05-16T05:46:07;16.20;88.70
36450;DHT22;22475;51.390;7.180;2023-05-16T05:48:34;16.20;88.50
36450;DHT22;22475;51.390;7.180;2023-05-16T05:51:01;16.20;88.40
36450;DHT22;22475;51.390;7.180;2023-05-16T05:53:28;16.20;88.30
36450;DHT22;22475;51.390;7.180;2023-05-16T05:55:55;16.20;88.20
36450;DHT22;22475;51.390;7.180;2023-05-16T05:58:23;16.20;88.30
36450;DHT22;22475;51.390;7.180;2023-05-16T06:00:49;16.20;88.30
36450;DHT22;22475;51.390;7.180;2023-05-16T06:03:16;16.20;88.20
36450;DHT22;22475;51.390;7.180;2023-05-16T06:05:45;16.20;89.00
36450;DHT22;22475;51.390;7.180;2023-05-16T06:08:12;16.20;88.50
36450;DHT22;22475;51.390;7.180;2023-05-16T06:10:39;16.20;88.80
36450;DHT22;22475;51.390;7.180;2023-05-16T06:13:05;16.20;88.80
36450;DHT22;22475;51.390;7.180;2023-05-16T06:15:33;16.20;88.60
36450;DHT22;22475;51.390;7.180;2023-05-16T06:18:00;16.20;88.20
36450;DHT22;22475;51.390;7.180;2023-05-16T06:20:27;16.20;88.10
36450;DHT22;22475;51.390;7.180;2023-05-16T06:22:54;16.20;88.20
36450;DHT22;22475;51.390;7.180;2023-05-16T06:25:20;16.20;88.10
36450;DHT22;22475;51.390;7.180;2023-05-16T06:27:47;16.20;88.00
36450;DHT22;22475;51.390;7.180;2023-05-16T06:30:14;16.20;87.80
36450;DHT22;22475;51.390;7.180;2023-05-16T06:32:42;16.20;87.90
36450;DHT22;22475;51.390;7.180;2023-05-16T06:35:09;16.20;88.30
36450;DHT22;22475;51.390;7.180;2023-05-16T06:37:36;16.20;88.30
36450;DHT22;22475;51.390;7.180;2023-05-16T06:40:03;16.20;87.90
36450;DHT22;22475;51.390;7.180;2023-05-16T06:42:30;16.20;87.90
36450;DHT22;22475;51.390;7.180;2023-05-16T06:44:57;16.20;87.50
36450;DHT22;22475;51.390;7.180;2023-05-16T06:47:23;16.20;87.20
36450;DHT22;22475;51.390;7.180;2023-05-16T06:49:52;16.20;87.00
36450;DHT22;22475;51.390;7.180;2023-05-16T06:52:18;16.20;87.10
36450;DHT22;22475;51.390;7.180;2023-05-16T06:54:45;16.20;87.40
36450;DHT22;22475;51.390;7.180;2023-05-16T06:57:12;16.20;87.40
36450;DHT22;22475;51.390;7.180;2023-05-16T06:59:39;16.20;87.60
36450;DHT22;22475;51.390;7.180;2023-05-16T07:02:05;16.20;87.70
36450;DHT22;22475;51.390;7.180;2023-05-16T07:04:32;16.20;87.90
36450;DHT22;22475;51.390;7.180;2023-05-16T07:07:02;16.30;88.00
36450;DHT22;22475;51.390;7.180;2023-05-16T07:09:29;16.20;87.70
36450;DHT22;22475;51.390;7.180;2023-05-16T07:11:56;16.20;87.50
36450;DHT22;22475;51.390;7.180;2023-05-16T07:14:22;16.20;87.10
36450;DHT22;22475;51.390;7.180;2023-05-16T07:16:49;16.20;86.70
36450;DHT22;22475;51.390;7.180;2023-05-16T07:19:16;16.20;86.70
36450;DHT22;22475;51.390;7.180;2023-05-16T07:21:42;16.20;87.40
36450;DHT22;22475;51.390;7.180;2023-05-16T07:24:11;16.20;86.70
36450;DHT22;22475;51.390;7.180;2023-05-16T07:26:37;16.20;86.70
36450;DHT22;22475;51.390;7.180;2023-05-16T07:29:04;16.20;86.50
36450;DHT22;22475;51.390;7.180;2023-05-16T07:31:31;16.20;86.40
36450;DHT22;22475;51.390;7.180;2023-05-16T07:33:57;16.20;86.00
36450;DHT22;22475;51.390;7.180;2023-05-16T07:36:24;16.20;85.60
36450;DHT22;22475;51.390;7.180;2023-05-16T07:38:51;16.20;85.30
36450;DHT22;22475;51.390;7.180;2023-05-16T07:41:19;16.20;85.30
36450;DHT22;22475;51.390;7.180;2023-05-16T07:43:46;16.20;85.20
36450;DHT22;22475;51.390;7.180;2023-05-16T07:46:12;16.20;84.90
36450;DHT22;22475;51.390;7.180;2023-05-16T07:48:39;16.20;85.20
36450;DHT22;22475;51.390;7.180;2023-05-16T07:51:06;16.20;85.40
36450;DHT22;22475;51.390;7.180;2023-05-16T07:53:33;16.20;85.40
36450;DHT22;22475;51.390;7.180;2023-05-16T07:56:00;16.20;85.10
36450;DHT22;22475;51.390;7.180;2023-05-16T07:58:28;16.20;85.00
36450;DHT22;22475;51.390;7.180;2023-05-16T08:00:54;16.20;84.90
36450;DHT22;22475;51.390;7.180;2023-05-16T08:03:21;16.20;84.60
36450;DHT22;22475;51.390;7.180;2023-05-16T08:05:48;16.20;84.70
36450;DHT22;22475;51.390;7.180;2023-05-16T08:08:16;16.20;84.50
36450;DHT22;22475;51.390;7.180;2023-05-16T08:10:43;16.20;84.00
36450;DHT22;22475;51.390;7.180;2023-05-16T08:13:09;16.30;83.70
36450;DHT22;22475;51.390;7.180;2023-05-16T08:15:37;16.20;83.50
36450;DHT22;22475;51.390;7.180;2023-05-16T08:18:11;16.20;83.50
36450;DHT22;22475;51.390;7.180;2023-05-16T08:20:38;16.30;83.50
36450;DHT22;22475;51.390;7.180;2023-05-16T08:23:06;16.30;83.40
36450;DHT22;22475;51.390;7.180;2023-05-16T08:25:33;16.30;83.30
36450;DHT22;22475;51.390;7.180;2023-05-16T08:28:00;16.30;83.00
36450;DHT22;22475;51.390;7.180;2023-05-16T08:30:27;16.30;82.80
36450;DHT22;22475;51.390;7.180;2023-05-16T08:32:55;16.30;82.80
36450;DHT22;22475;51.390;7.180;2023-05-16T08:35:22;16.30;83.00
36450;DHT22;22475;51.390;7.180;2023-05-16T08:37:48;16.30;83.00
36450;DHT22;22475;51.390;7.180;2023-05-16T08:40:15;16.30;82.90
36450;DHT22;22475;51.390;7.180;2023-05-16T08:42:43;16.30;83.00
36450;DHT22;22475;51.390;7.180;2023-05-16T08:45:10;16.30;82.90
36450;DHT22;22475;51.390;7.180;2023-05-16T08:47:39;16.30;83.00
36450;DHT22;22475;51.390;7.180;2023-05-16T08:50:09;16.30;83.00
36450;DHT22;22475;51.390;7.180;2023-05-16T08:52:37;16.30;82.90
36450;DHT22;22475;51.390;7.180;2023-05-16T08:55:05;16.30;83.00
36450;DHT22;22475;51.390;7.180;2023-05-16T08:57:34;16.30;83.10
36450;DHT22;22475;51.390;7.180;2023-05-16T09:00:01;16.30;83.30
36450;DHT22;22475;51.390;7.180;2023-05-16T09:02:36;16.30;83.00
36450;DHT22;22475;51.390;7.180;2023-05-16T09:05:04;16.40;82.70
36450;DHT22;22475;51.390;7.180;2023-05-16T09:07:32;16.30;82.70
36450;DHT22;22475;51.390;7.180;2023-05-16T09:09:59;16.30;83.00
36450;DHT22;22475;51.390;7.180;2023-05-16T09:12:26;16.40;82.90
36450;DHT22;22475;51.390;7.180;2023-05-16T09:14:52;16.30;82.50
36450;DHT22;22475;51.390;7.180;2023-05-16T09:17:20;16.40;82.80
36450;DHT22;22475;51.390;7.180;2023-05-16T09:19:47;16.40;82.90
36450;DHT22;22475;51.390;7.180;2023-05-16T09:22:17;16.40;82.60
36450;DHT22;22475;51.390;7.180;2023-05-16T09:24:45;16.40;83.10
36450;DHT22;22475;51.390;7.180;2023-05-16T09:27:14;16.40;83.10
36450;DHT22;22475;51.390;7.180;2023-05-16T09:29:42;16.40;83.30
36450;DHT22;22475;51.390;7.180;2023-05-16T09:32:10;16.40;83.50
36450;DHT22;22475;51.390;7.180;2023-05-16T09:34:38;16.40;83.60
36450;DHT22;22475;51.390;7.180;2023-05-16T09:37:05;16.40;83.10
36450;DHT22;22475;51.390;7.180;2023-05-16T09:39:32;16.40;82.90
36450;DHT22;22475;51.390;7.180;2023-05-16T09:42:00;16.40;83.10
36450;DHT22;22475;51.390;7.180;2023-05-16T09:44:27;16.40;83.10
36450;DHT22;22475;51.390;7.180;2023-05-16T09:46:54;16.50;83.40
36450;DHT22;22475;51.390;7.180;2023-05-16T09:49:21;16.40;83.10
36450;DHT22;22475;51.390;7.180;2023-05-16T09:51:49;16.40;83.00
36450;DHT22;22475;51.390;7.180;2023-05-16T09:54:28;16.40;83.10
36450;DHT22;22475;51.390;7.180;2023-05-16T09:56:56;16.40;83.00
36450;DHT22;22475;51.390;7.180;2023-05-16T09:59:24;16.40;82.80
36450;DHT22;22475;51.390;7.180;2023-05-16T10:01:52;16.40;82.20
36450;DHT22;22475;51.390;7.180;2023-05-16T10:04:18;16.40;81.70
36450;DHT22;22475;51.390;7.180;2023-05-16T10:06:46;16.50;81.50
36450;DHT22;22475;51.390;7.180;2023-05-16T10:09:14;16.40;81.80
36450;DHT22;22475;51.390;7.180;2023-05-16T10:11:42;16.50;82.40
36450;DHT22;22475;51.390;7.180;2023-05-16T10:14:09;16.40;82.20
36450;DHT22;22475;51.390;7.180;2023-05-16T10:16:42;16.40;82.00
36450;DHT22;22475;51.390;7.180;2023-05-16T10:19:10;16.40;82.20
36450;DHT22;22475;51.390;7.180;2023-05-16T10:21:37;16.40;81.80
36450;DHT22;22475;51.390;7.180;2023-05-16T10:24:06;16.40;81.60
36450;DHT22;22475;51.390;7.180;2023-05-16T10:26:37;16.40;81.80
36450;DHT22;22475;51.390;7.180;2023-05-16T10:29:03;16.40;82.00
36450;DHT22;22475;51.390;7.180;2023-05-16T10:31:31;16.40;82.10
36450;DHT22;22475;51.390;7.180;2023-05-16T10:34:00;16.50;81.80
36450;DHT22;22475;51.390;7.180;2023-05-16T10:36:27;16.40;81.30
36450;DHT22;22475;51.390;7.180;2023-05-16T10:38:54;16.40;80.90
36450;DHT22;22475;51.390;7.180;2023-05-16T10:41:21;16.50;80.80
36450;DHT22;22475;51.390;7.180;2023-05-16T10:43:55;16.40;80.80
36450;DHT22;22475;51.390;7.180;2023-05-16T10:46:23;16.50;81.10
36450;DHT22;22475;51.390;7.180;2023-05-16T10:48:50;16.50;81.60
36450;DHT22;22475;51.390;7.180;2023-05-16T10:51:35;16.50;81.50
36450;DHT22;22475;51.390;7.180;2023-05-16T10:54:08;16.50;81.60
36450;DHT22;22475;51.390;7.180;2023-05-16T10:56:36;16.40;81.80
36450;DHT22;22475;51.390;7.180;2023-05-16T10:59:02;16.50;81.80
36450;DHT22;22475;51.390;7.180;2023-05-16T11:01:32;16.50;82.00
36450;DHT22;22475;51.390;7.180;2023-05-16T11:04:06;16.50;82.10
36450;DHT22;22475;51.390;7.180;2023-05-16T11:06:52;16.50;82.00
36450;DHT22;22475;51.390;7.180;2023-05-16T11:09:25;16.50;81.80
36450;DHT22;22475;51.390;7.180;2023-05-16T11:11:55;16.50;81.60
36450;DHT22;22475;51.390;7.180;2023-05-16T11:14:23;16.50;81.70
36450;DHT22;22475;51.390;7.180;2023-05-16T11:16:51;16.50;82.40
36450;DHT22;22475;51.390;7.180;2023-05-16T11:19:29;16.50;82.50
36450;DHT22;22475;51.390;7.180;2023-05-16T11:22:21;16.50;82.20
36450;DHT22;22475;51.390;7.180;2023-05-16T11:24:51;16.50;81.90
36450;DHT22;22475;51.390;7.180;2023-05-16T11:27:21;16.50;81.90
36450;DHT22;22475;51.390;7.180;2023-05-16T11:29:49;16.50;81.90
36450;DHT22;22475;51.390;7.180;2023-05-16T11:32:18;16.50;81.70
36450;DHT22;22475;51.390;7.180;2023-05-16T11:34:46;16.50;81.70
36450;DHT22;22475;51.390;7.180;2023-05-16T11:37:15;16.50;82.00
36450;DHT22;22475;51.390;7.180;2023-05-16T11:39:43;16.50;81.80
36450;DHT22;22475;51.390;7.180;2023-05-16T11:42:09;16.50;82.20
36450;DHT22;22475;51.390;7.180;2023-05-16T11:44:37;16.60;82.70
36450;DHT22;22475;51.390;7.180;2023-05-16T11:47:04;16.50;82.50
36450;DHT22;22475;51.390;7.180;2023-05-16T11:49:32;16.50;82.40
36450;DHT22;22475;51.390;7.180;2023-05-16T11:52:00;16.60;82.50
36450;DHT22;22475;51.390;7.180;2023-05-16T11:54:28;16.50;82.50
36450;DHT22;22475;51.390;7.180;2023-05-16T11:56:55;16.60;82.40
36450;DHT22;22475;51.390;7.180;2023-05-16T11:59:22;16.50;82.50
36450;DHT22;22475;51.390;7.180;2023-05-16T12:01:48;16.60;82.60
36450;DHT22;22475;51.390;7.180;2023-05-16T12:04:16;16.60;82.20
36450;DHT22;22475;51.390;7.180;2023-05-16T12:06:57;16.60;81.90
36450;DHT22;22475;51.390;7.180;2023-05-16T12:09:25;16.50;81.40
36450;DHT22;22475;51.390;7.180;2023-05-16T12:11:53;16.60;81.50
36450;DHT22;22475;51.390;7.180;2023-05-16T12:14:27;16.60;81.50
36450;DHT22;22475;51.390;7.180;2023-05-16T12:16:57;16.60;81.40
36450;DHT22;22475;51.390;7.180;2023-05-16T12:19:24;16.60;81.40
36450;DHT22;22475;51.390;7.180;2023-05-16T12:21:52;16.50;81.70
36450;DHT22;22475;51.390;7.180;2023-05-16T12:24:19;16.50;82.20
36450;DHT22;22475;51.390;7.180;2023-05-16T12:26:46;16.60;82.70
36450;DHT22;22475;51.390;7.180;2023-05-16T12:29:23;16.50;83.00
36450;DHT22;22475;51.390;7.180;2023-05-16T12:31:52;16.60;83.20
36450;DHT22;22475;51.390;7.180;2023-05-16T12:34:19;16.60;83.20
36450;DHT22;22475;51.390;7.180;2023-05-16T12:36:50;16.60;83.40
36450;DHT22;22475;51.390;7.180;2023-05-16T12:39:17;16.60;83.70
36450;DHT22;22475;51.390;7.180;2023-05-16T12:41:45;16.60;83.60
36450;DHT22;22475;51.390;7.180;2023-05-16T12:44:15;16.60;83.40
36450;DHT22;22475;51.390;7.180;2023-05-16T12:46:44;16.60;83.70
36450;DHT22;22475;51.390;7.180;2023-05-16T12:49:11;16.60;83.20
36450;DHT22;22475;51.390;7.180;2023-05-16T12:51:38;16.60;83.20
36450;DHT22;22475;51.390;7.180;2023-05-16T12:54:09;16.60;82.90
36450;DHT22;22475;51.390;7.180;2023-05-16T12:56:37;16.60;82.80
36450;DHT22;22475;51.390;7.180;2023-05-16T12:59:04;16.60;82.70
36450;DHT22;22475;51.390;7.180;2023-05-16T13:01:32;16.60;82.80
36450;DHT22;22475;51.390;7.180;2023-05-16T13:03:59;16.60;82.90
36450;DHT22;22475;51.390;7.180;2023-05-16T13:06:26;16.60;83.00
36450;DHT22;22475;51.390;7.180;2023-05-16T13:08:53;16.60;83.10
36450;DHT22;22475;51.390;7.180;2023-05-16T13:11:20;16.60;83.20
36450;DHT22;22475;51.390;7.180;2023-05-16T13:13:47;16.60;83.20
36450;DHT22;22475;51.390;7.180;2023-05-16T13:16:13;16.60;82.80
36450;DHT22;22475;51.390;7.180;2023-05-16T13:18:42;16.60;82.80
36450;DHT22;22475;51.390;7.180;2023-05-16T13:21:08;16.60;82.70
36450;DHT22;22475;51.390;7.180;2023-05-16T13:23:35;16.60;82.90
36450;DHT22;22475;51.390;7.180;2023-05-16T13:26:02;16.60;82.50
36450;DHT22;22475;51.390;7.180;2023-05-16T13:28:29;16.60;82.00
36450;DHT22;22475;51.390;7.180;2023-05-16T13:30:57;16.60;81.60
36450;DHT22;22475;51.390;7.180;2023-05-16T13:33:24;16.60;81.70
36450;DHT22;22475;51.390;7.180;2023-05-16T13:35:52;16.60;81.70
36450;DHT22;22475;51.390;7.180;2023-05-16T13:38:19;16.70;81.90
36450;DHT22;22475;51.390;7.180;2023-05-16T13:40:46;16.60;82.20
36450;DHT22;22475;51.390;7.180;2023-05-16T13:43:13;16.70;82.50
36450;DHT22;22475;51.390;7.180;2023-05-16T13:45:40;16.70;82.40
36450;DHT22;22475;51.390;7.180;2023-05-16T13:48:08;16.70;81.60
36450;DHT22;22475;51.390;7.180;2023-05-16T13:50:36;16.70;80.90
36450;DHT22;22475;51.390;7.180;2023-05-16T13:53:05;16.60;80.50
36450;DHT22;22475;51.390;7.180;2023-05-16T13:55:32;16.70;80.10
36450;DHT22;22475;51.390;7.180;2023-05-16T13:57:58;16.60;80.20
36450;DHT22;22475;51.390;7.180;2023-05-16T14:00:25;16.70;80.40
36450;DHT22;22475;51.390;7.180;2023-05-16T14:02:52;16.70;80.10
36450;DHT22;22475;51.390;7.180;2023-05-16T14:05:19;16.70;80.00
36450;DHT22;22475;51.390;7.180;2023-05-16T14:07:46;16.70;79.50
36450;DHT22;22475;51.390;7.180;2023-05-16T14:10:14;16.70;79.50
36450;DHT22;22475;51.390;7.180;2023-05-16T14:12:40;16.70;79.80
36450;DHT22;22475;51.390;7.180;2023-05-16T14:15:08;16.70;79.60
36450;DHT22;22475;51.390;7.180;2023-05-16T14:17:35;16.70;79.30
36450;DHT22;22475;51.390;7.180;2023-05-16T14:20:02;16.70;79.00
36450;DHT22;22475;51.390;7.180;2023-05-16T14:22:29;16.70;78.90
36450;DHT22;22475;51.390;7.180;2023-05-16T14:24:56;16.70;78.60
36450;DHT22;22475;51.390;7.180;2023-05-16T14:27:25;16.70;78.20
36450;DHT22;22475;51.390;7.180;2023-05-16T14:29:51;16.70;77.90
36450;DHT22;22475;51.390;7.180;2023-05-16T14:32:18;16.70;77.90
36450;DHT22;22475;51.390;7.180;2023-05-16T14:34:45;16.70;78.00
36450;DHT22;22475;51.390;7.180;2023-05-16T14:37:12;16.70;78.00
36450;DHT22;22475;51.390;7.180;2023-05-16T14:39:40;16.70;78.60
36450;DHT22;22475;51.390;7.180;2023-05-16T14:42:09;16.70;78.90
36450;DHT22;22475;51.390;7.180;2023-05-16T14:44:38;16.70;78.40
36450;DHT22;22475;51.390;7.180;2023-05-16T14:47:05;16.70;78.20
36450;DHT22;22475;51.390;7.180;2023-05-16T14:49:32;16.70;78.10
36450;DHT22;22475;51.390;7.180;2023-05-16T14:51:58;16.70;77.90
36450;DHT22;22475;51.390;7.180;2023-05-16T14:54:25;16.70;77.80
36450;DHT22;22475;51.390;7.180;2023-05-16T14:56:52;16.70;77.70
36450;DHT22;22475;51.390;7.180;2023-05-16T14:59:20;16.70;78.40
36450;DHT22;22475;51.390;7.180;2023-05-16T15:01:48;16.70;78.60
36450;DHT22;22475;51.390;7.180;2023-05-16T15:04:14;16.70;78.20
36450;DHT22;22475;51.390;7.180;2023-05-16T15:06:41;16.70;78.00
36450;DHT22;22475;51.390;7.180;2023-05-16T15:09:08;16.70;78.20
36450;DHT22;22475;51.390;7.180;2023-05-16T15:11:35;16.70;78.10
36450;DHT22;22475;51.390;7.180;2023-05-16T15:14:02;16.70;78.60
36450;DHT22;22475;51.390;7.180;2023-05-16T15:16:29;16.70;78.60
36450;DHT22;22475;51.390;7.180;2023-05-16T15:18:57;16.70;79.00
36450;DHT22;22475;51.390;7.180;2023-05-16T15:21:24;16.70;78.80
36450;DHT22;22475;51.390;7.180;2023-05-16T15:23:51;16.70;78.70
36450;DHT22;22475;51.390;7.180;2023-05-16T15:26:19;16.70;78.40
36450;DHT22;22475;51.390;7.180;2023-05-16T15:28:47;16.70;78.40
36450;DHT22;22475;51.390;7.180;2023-05-16T15:31:13;16.70;79.00
36450;DHT22;22475;51.390;7.180;2023-05-16T15:33:40;16.70;79.60